Uncle Sam, Louisiana
Current Conditions -  °F | °C
As of 10:15 AM on Sunday 25 Jan 2015 (Local Time) from KL38 Reporting Station
Clear Clear  
Wind Chill: 59°   Ceiling: Unl
Heat Index: 59°   Visibility: 10mi
Dew Point: 41°   Wind: 9mph
Humidity: 52%   Direction: 230°SW
Pressure: 30.01"   Gusts: NA
Location:  30.02°N, 90.82°W
Report Text: KL38 251615Z AUTO 23008KT 10SM CLR 15/05 A3001 RMK AO2 T01490051
Loading
Personal Weather Stations






























Interactive Weather Map New forecast layout! Learn more

10-Day Weather Forecast

Advertisements
Track Severe Weather on mobile